Terminal Aerodrome Forecast
Issued by NWS La Crosse, WI

Home | Current Version | Previous Version | Text Only | Print | Product List | Glossary On
Versions: 1 2 3 4 5 6 7 8 9 10 11 12 13 14 15
000
FTUS43 KARX 300520
TAFRST
TAF
KRST 300520Z 3006/0106 06013KT P6SM OVC060
     FM301400 05016G24KT P6SM OVC025
     FM301800 06018G26KT P6SM VCSH OVC015
     FM302000 06018G26KT 5SM SHRA BR SCT008 OVC015
     FM010100 06011KT 3SM SHRA BR OVC006=

USA.gov is the U.S. government's official web portal to all federal, state and local government web resources and services.